sensor_id;sensor_type;location;lat;lon;timestamp;P1;durP1;ratioP1;P2;durP2;ratioP2
12425;SDS011;6277;49.824;9.562;2022-07-03T00:00:35;0.22;;;0.22;;
12425;SDS011;6277;49.824;9.562;2022-07-03T00:03:00;0.30;;;0.30;;
12425;SDS011;6277;49.824;9.562;2022-07-03T00:05:26;0.50;;;0.40;;
12425;SDS011;6277;49.824;9.562;2022-07-03T00:07:51;0.50;;;0.40;;
12425;SDS011;6277;49.824;9.562;2022-07-03T00:10:17;0.30;;;0.30;;
12425;SDS011;6277;49.824;9.562;2022-07-03T00:12:42;0.45;;;0.40;;
12425;SDS011;6277;49.824;9.562;2022-07-03T00:15:08;0.40;;;0.40;;
12425;SDS011;6277;49.824;9.562;2022-07-03T00:17:34;0.45;;;0.38;;
12425;SDS011;6277;49.824;9.562;2022-07-03T00:20:00;0.22;;;0.22;;
12425;SDS011;6277;49.824;9.562;2022-07-03T00:22:25;0.30;;;0.30;;
12425;SDS011;6277;49.824;9.562;2022-07-03T00:24:55;0.30;;;0.30;;
12425;SDS011;6277;49.824;9.562;2022-07-03T00:27:28;0.30;;;0.30;;
12425;SDS011;6277;49.824;9.562;2022-07-03T00:29:58;0.70;;;0.30;;
12425;SDS011;6277;49.824;9.562;2022-07-03T00:32:25;0.38;;;0.35;;
12425;SDS011;6277;49.824;9.562;2022-07-03T00:34:52;1.30;;;0.30;;
12425;SDS011;6277;49.824;9.562;2022-07-03T00:37:19;0.40;;;0.30;;
12425;SDS011;6277;49.824;9.562;2022-07-03T00:39:46;0.52;;;0.20;;
12425;SDS011;6277;49.824;9.562;2022-07-03T00:42:13;1.23;;;0.40;;
12425;SDS011;6277;49.824;9.562;2022-07-03T00:44:57;0.77;;;0.50;;
12425;SDS011;6277;49.824;9.562;2022-07-03T00:47:25;0.55;;;0.20;;
12425;SDS011;6277;49.824;9.562;2022-07-03T00:49:52;0.30;;;0.20;;
12425;SDS011;6277;49.824;9.562;2022-07-03T00:52:20;1.27;;;0.30;;
12425;SDS011;6277;49.824;9.562;2022-07-03T00:54:54;0.82;;;0.35;;
12425;SDS011;6277;49.824;9.562;2022-07-03T00:57:21;0.38;;;0.38;;
12425;SDS011;6277;49.824;9.562;2022-07-03T00:59:49;0.30;;;0.30;;
12425;SDS011;6277;49.824;9.562;2022-07-03T01:02:38;0.35;;;0.35;;
12425;SDS011;6277;49.824;9.562;2022-07-03T01:05:27;0.30;;;0.30;;
12425;SDS011;6277;49.824;9.562;2022-07-03T01:08:14;0.88;;;0.45;;
12425;SDS011;6277;49.824;9.562;2022-07-03T01:13:14;0.40;;;0.40;;
12425;SDS011;6277;49.824;9.562;2022-07-03T01:15:50;0.40;;;0.40;;
12425;SDS011;6277;49.824;9.562;2022-07-03T01:18:44;0.52;;;0.30;;
12425;SDS011;6277;49.824;9.562;2022-07-03T01:21:26;0.40;;;0.40;;
12425;SDS011;6277;49.824;9.562;2022-07-03T01:26:47;0.32;;;0.32;;
12425;SDS011;6277;49.824;9.562;2022-07-03T01:29:35;0.30;;;0.30;;
12425;SDS011;6277;49.824;9.562;2022-07-03T01:32:23;0.63;;;0.30;;
12425;SDS011;6277;49.824;9.562;2022-07-03T01:34:52;0.98;;;0.57;;
12425;SDS011;6277;49.824;9.562;2022-07-03T01:37:20;0.40;;;0.30;;
12425;SDS011;6277;49.824;9.562;2022-07-03T01:39:51;0.30;;;0.30;;
12425;SDS011;6277;49.824;9.562;2022-07-03T01:42:18;0.40;;;0.40;;
12425;SDS011;6277;49.824;9.562;2022-07-03T01:44:44;0.50;;;0.32;;
12425;SDS011;6277;49.824;9.562;2022-07-03T01:47:12;0.40;;;0.40;;
12425;SDS011;6277;49.824;9.562;2022-07-03T01:49:38;0.68;;;0.50;;
12425;SDS011;6277;49.824;9.562;2022-07-03T01:52:06;0.35;;;0.32;;
12425;SDS011;6277;49.824;9.562;2022-07-03T01:54:33;0.30;;;0.30;;
12425;SDS011;6277;49.824;9.562;2022-07-03T01:57:02;0.73;;;0.40;;
12425;SDS011;6277;49.824;9.562;2022-07-03T01:59:31;0.30;;;0.30;;
12425;SDS011;6277;49.824;9.562;2022-07-03T02:04:44;0.50;;;0.30;;
12425;SDS011;6277;49.824;9.562;2022-07-03T02:07:34;1.42;;;0.50;;
12425;SDS011;6277;49.824;9.562;2022-07-03T02:10:06;1.38;;;0.40;;
12425;SDS011;6277;49.824;9.562;2022-07-03T02:12:38;0.68;;;0.40;;
12425;SDS011;6277;49.824;9.562;2022-07-03T02:15:09;1.05;;;0.38;;
12425;SDS011;6277;49.824;9.562;2022-07-03T02:17:43;2.15;;;0.50;;
12425;SDS011;6277;49.824;9.562;2022-07-03T02:20:13;1.02;;;0.40;;
12425;SDS011;6277;49.824;9.562;2022-07-03T02:22:49;0.60;;;0.40;;
12425;SDS011;6277;49.824;9.562;2022-07-03T02:25:22;0.57;;;0.40;;
12425;SDS011;6277;49.824;9.562;2022-07-03T02:28:03;0.77;;;0.40;;
12425;SDS011;6277;49.824;9.562;2022-07-03T02:30:34;1.00;;;0.32;;
12425;SDS011;6277;49.824;9.562;2022-07-03T02:33:01;0.38;;;0.30;;
12425;SDS011;6277;49.824;9.562;2022-07-03T02:43:15;0.50;;;0.40;;
12425;SDS011;6277;49.824;9.562;2022-07-03T02:45:50;0.57;;;0.43;;
12425;SDS011;6277;49.824;9.562;2022-07-03T02:48:36;0.38;;;0.38;;
12425;SDS011;6277;49.824;9.562;2022-07-03T02:51:10;0.77;;;0.35;;
12425;SDS011;6277;49.824;9.562;2022-07-03T02:53:47;0.32;;;0.32;;
12425;SDS011;6277;49.824;9.562;2022-07-03T02:57:05;0.40;;;0.38;;
12425;SDS011;6277;49.824;9.562;2022-07-03T02:59:38;0.40;;;0.30;;
12425;SDS011;6277;49.824;9.562;2022-07-03T03:05:13;1.05;;;0.30;;
12425;SDS011;6277;49.824;9.562;2022-07-03T03:10:41;1.13;;;0.35;;
12425;SDS011;6277;49.824;9.562;2022-07-03T03:13:13;0.45;;;0.30;;
12425;SDS011;6277;49.824;9.562;2022-07-03T03:15:47;1.63;;;0.40;;
12425;SDS011;6277;49.824;9.562;2022-07-03T03:18:29;0.85;;;0.50;;
12425;SDS011;6277;49.824;9.562;2022-07-03T03:20:56;0.77;;;0.47;;
12425;SDS011;6277;49.824;9.562;2022-07-03T03:26:19;0.28;;;0.28;;
12425;SDS011;6277;49.824;9.562;2022-07-03T03:28:55;0.30;;;0.30;;
12425;SDS011;6277;49.824;9.562;2022-07-03T03:31:21;1.08;;;0.47;;
12425;SDS011;6277;49.824;9.562;2022-07-03T03:33:47;0.50;;;0.50;;
12425;SDS011;6277;49.824;9.562;2022-07-03T03:36:16;0.60;;;0.40;;
12425;SDS011;6277;49.824;9.562;2022-07-03T03:38:44;0.43;;;0.43;;
12425;SDS011;6277;49.824;9.562;2022-07-03T03:41:10;0.65;;;0.45;;
12425;SDS011;6277;49.824;9.562;2022-07-03T03:43:36;0.30;;;0.30;;
12425;SDS011;6277;49.824;9.562;2022-07-03T03:46:03;0.28;;;0.28;;
12425;SDS011;6277;49.824;9.562;2022-07-03T03:48:29;1.23;;;0.50;;
12425;SDS011;6277;49.824;9.562;2022-07-03T03:50:57;0.68;;;0.40;;
12425;SDS011;6277;49.824;9.562;2022-07-03T03:53:24;0.73;;;0.40;;
12425;SDS011;6277;49.824;9.562;2022-07-03T03:58:27;0.47;;;0.43;;
12425;SDS011;6277;49.824;9.562;2022-07-03T04:00:57;0.50;;;0.50;;
12425;SDS011;6277;49.824;9.562;2022-07-03T04:03:24;0.60;;;0.60;;
12425;SDS011;6277;49.824;9.562;2022-07-03T04:05:50;0.40;;;0.40;;
12425;SDS011;6277;49.824;9.562;2022-07-03T04:08:16;0.40;;;0.38;;
12425;SDS011;6277;49.824;9.562;2022-07-03T04:10:41;0.52;;;0.52;;
12425;SDS011;6277;49.824;9.562;2022-07-03T04:13:07;0.70;;;0.50;;
12425;SDS011;6277;49.824;9.562;2022-07-03T04:15:32;0.60;;;0.50;;
12425;SDS011;6277;49.824;9.562;2022-07-03T04:17:58;0.60;;;0.45;;
12425;SDS011;6277;49.824;9.562;2022-07-03T04:20:24;1.33;;;0.45;;
12425;SDS011;6277;49.824;9.562;2022-07-03T04:22:49;0.50;;;0.50;;
12425;SDS011;6277;49.824;9.562;2022-07-03T04:25:15;0.90;;;0.70;;
12425;SDS011;6277;49.824;9.562;2022-07-03T04:27:41;0.68;;;0.60;;
12425;SDS011;6277;49.824;9.562;2022-07-03T04:30:07;1.52;;;0.63;;
12425;SDS011;6277;49.824;9.562;2022-07-03T04:32:35;0.60;;;0.60;;
12425;SDS011;6277;49.824;9.562;2022-07-03T04:35:02;0.60;;;0.57;;
12425;SDS011;6277;49.824;9.562;2022-07-03T04:37:27;0.60;;;0.60;;
12425;SDS011;6277;49.824;9.562;2022-07-03T04:39:53;0.80;;;0.70;;
12425;SDS011;6277;49.824;9.562;2022-07-03T04:42:19;1.50;;;0.80;;
12425;SDS011;6277;49.824;9.562;2022-07-03T04:44:44;1.50;;;0.65;;
12425;SDS011;6277;49.824;9.562;2022-07-03T04:47:10;0.82;;;0.80;;
12425;SDS011;6277;49.824;9.562;2022-07-03T04:49:35;0.70;;;0.70;;
12425;SDS011;6277;49.824;9.562;2022-07-03T04:52:01;0.50;;;0.50;;
12425;SDS011;6277;49.824;9.562;2022-07-03T04:54:26;1.42;;;0.70;;
12425;SDS011;6277;49.824;9.562;2022-07-03T04:56:52;1.52;;;0.80;;
12425;SDS011;6277;49.824;9.562;2022-07-03T04:59:18;1.35;;;0.60;;
12425;SDS011;6277;49.824;9.562;2022-07-03T05:01:43;0.70;;;0.63;;
12425;SDS011;6277;49.824;9.562;2022-07-03T05:04:09;0.60;;;0.60;;
12425;SDS011;6277;49.824;9.562;2022-07-03T05:06:34;0.95;;;0.60;;
12425;SDS011;6277;49.824;9.562;2022-07-03T05:09:00;1.10;;;0.70;;
12425;SDS011;6277;49.824;9.562;2022-07-03T05:11:25;0.90;;;0.60;;
12425;SDS011;6277;49.824;9.562;2022-07-03T05:13:51;0.50;;;0.50;;
12425;SDS011;6277;49.824;9.562;2022-07-03T05:16:17;1.08;;;0.70;;
12425;SDS011;6277;49.824;9.562;2022-07-03T05:18:42;0.60;;;0.60;;
12425;SDS011;6277;49.824;9.562;2022-07-03T05:21:08;2.05;;;0.70;;
12425;SDS011;6277;49.824;9.562;2022-07-03T05:23:33;0.75;;;0.63;;
12425;SDS011;6277;49.824;9.562;2022-07-03T05:25:59;0.70;;;0.70;;
12425;SDS011;6277;49.824;9.562;2022-07-03T05:28:24;0.60;;;0.60;;
12425;SDS011;6277;49.824;9.562;2022-07-03T05:30:50;0.90;;;0.45;;
12425;SDS011;6277;49.824;9.562;2022-07-03T05:33:16;0.57;;;0.55;;
12425;SDS011;6277;49.824;9.562;2022-07-03T05:35:41;0.40;;;0.40;;
12425;SDS011;6277;49.824;9.562;2022-07-03T05:38:07;0.50;;;0.50;;
12425;SDS011;6277;49.824;9.562;2022-07-03T05:40:32;0.60;;;0.60;;
12425;SDS011;6277;49.824;9.562;2022-07-03T05:42:58;2.05;;;0.70;;
12425;SDS011;6277;49.824;9.562;2022-07-03T05:45:24;0.70;;;0.50;;
12425;SDS011;6277;49.824;9.562;2022-07-03T05:47:49;0.52;;;0.52;;
12425;SDS011;6277;49.824;9.562;2022-07-03T05:50:15;0.63;;;0.52;;
12425;SDS011;6277;49.824;9.562;2022-07-03T05:52:40;0.70;;;0.60;;
12425;SDS011;6277;49.824;9.562;2022-07-03T05:55:06;0.80;;;0.50;;
12425;SDS011;6277;49.824;9.562;2022-07-03T05:57:32;0.82;;;0.52;;
12425;SDS011;6277;49.824;9.562;2022-07-03T05:59:57;0.70;;;0.60;;
12425;SDS011;6277;49.824;9.562;2022-07-03T06:02:23;1.23;;;0.75;;
12425;SDS011;6277;49.824;9.562;2022-07-03T06:04:48;0.90;;;0.70;;
12425;SDS011;6277;49.824;9.562;2022-07-03T06:07:14;0.82;;;0.60;;
12425;SDS011;6277;49.824;9.562;2022-07-03T06:09:41;1.17;;;0.60;;
12425;SDS011;6277;49.824;9.562;2022-07-03T06:12:08;0.63;;;0.60;;
12425;SDS011;6277;49.824;9.562;2022-07-03T06:14:33;0.90;;;0.80;;
12425;SDS011;6277;49.824;9.562;2022-07-03T06:16:59;1.33;;;0.80;;
12425;SDS011;6277;49.824;9.562;2022-07-03T06:19:24;0.80;;;0.77;;
12425;SDS011;6277;49.824;9.562;2022-07-03T06:21:50;0.60;;;0.60;;
12425;SDS011;6277;49.824;9.562;2022-07-03T06:24:15;1.05;;;0.70;;
12425;SDS011;6277;49.824;9.562;2022-07-03T06:26:41;0.52;;;0.50;;
12425;SDS011;6277;49.824;9.562;2022-07-03T06:29:06;0.77;;;0.70;;
12425;SDS011;6277;49.824;9.562;2022-07-03T06:31:32;1.52;;;0.95;;
12425;SDS011;6277;49.824;9.562;2022-07-03T06:33:57;1.42;;;0.70;;
12425;SDS011;6277;49.824;9.562;2022-07-03T06:36:23;0.80;;;0.60;;
12425;SDS011;6277;49.824;9.562;2022-07-03T06:38:49;0.60;;;0.52;;
12425;SDS011;6277;49.824;9.562;2022-07-03T06:41:14;0.85;;;0.70;;
12425;SDS011;6277;49.824;9.562;2022-07-03T06:43:40;0.90;;;0.70;;
12425;SDS011;6277;49.824;9.562;2022-07-03T06:46:05;0.80;;;0.70;;
12425;SDS011;6277;49.824;9.562;2022-07-03T06:48:31;1.00;;;0.75;;
12425;SDS011;6277;49.824;9.562;2022-07-03T06:50:56;0.63;;;0.60;;
12425;SDS011;6277;49.824;9.562;2022-07-03T06:53:22;0.50;;;0.50;;
12425;SDS011;6277;49.824;9.562;2022-07-03T06:55:47;1.20;;;0.55;;
12425;SDS011;6277;49.824;9.562;2022-07-03T06:58:13;0.90;;;0.50;;
12425;SDS011;6277;49.824;9.562;2022-07-03T07:00:39;0.57;;;0.57;;
12425;SDS011;6277;49.824;9.562;2022-07-03T07:03:04;0.75;;;0.60;;
12425;SDS011;6277;49.824;9.562;2022-07-03T07:05:30;1.23;;;0.50;;
12425;SDS011;6277;49.824;9.562;2022-07-03T07:07:56;1.13;;;0.70;;
12425;SDS011;6277;49.824;9.562;2022-07-03T07:10:21;0.90;;;0.60;;
12425;SDS011;6277;49.824;9.562;2022-07-03T07:12:47;1.35;;;0.60;;
12425;SDS011;6277;49.824;9.562;2022-07-03T07:15:14;0.80;;;0.60;;
12425;SDS011;6277;49.824;9.562;2022-07-03T07:17:39;0.70;;;0.60;;
12425;SDS011;6277;49.824;9.562;2022-07-03T07:20:05;1.00;;;0.50;;
12425;SDS011;6277;49.824;9.562;2022-07-03T07:22:31;1.60;;;0.70;;
12425;SDS011;6277;49.824;9.562;2022-07-03T07:24:57;0.80;;;0.65;;
12425;SDS011;6277;49.824;9.562;2022-07-03T07:27:22;1.13;;;0.52;;
12425;SDS011;6277;49.824;9.562;2022-07-03T07:29:48;0.73;;;0.70;;
12425;SDS011;6277;49.824;9.562;2022-07-03T07:32:13;1.20;;;0.63;;
12425;SDS011;6277;49.824;9.562;2022-07-03T07:34:39;1.10;;;0.80;;
12425;SDS011;6277;49.824;9.562;2022-07-03T07:37:05;0.85;;;0.63;;
12425;SDS011;6277;49.824;9.562;2022-07-03T07:39:30;0.90;;;0.73;;
12425;SDS011;6277;49.824;9.562;2022-07-03T07:41:56;1.67;;;0.60;;
12425;SDS011;6277;49.824;9.562;2022-07-03T07:44:21;0.60;;;0.60;;
12425;SDS011;6277;49.824;9.562;2022-07-03T07:46:47;1.67;;;0.60;;
12425;SDS011;6277;49.824;9.562;2022-07-03T07:49:14;0.85;;;0.70;;
12425;SDS011;6277;49.824;9.562;2022-07-03T07:51:39;1.15;;;0.65;;
12425;SDS011;6277;49.824;9.562;2022-07-03T07:54:05;0.65;;;0.50;;
12425;SDS011;6277;49.824;9.562;2022-07-03T07:56:30;0.90;;;0.70;;
12425;SDS011;6277;49.824;9.562;2022-07-03T07:58:56;0.82;;;0.60;;
12425;SDS011;6277;49.824;9.562;2022-07-03T08:01:21;0.60;;;0.60;;
12425;SDS011;6277;49.824;9.562;2022-07-03T08:06:49;0.77;;;0.40;;
12425;SDS011;6277;49.824;9.562;2022-07-03T08:09:15;0.73;;;0.50;;
12425;SDS011;6277;49.824;9.562;2022-07-03T08:11:41;0.82;;;0.55;;
12425;SDS011;6277;49.824;9.562;2022-07-03T08:14:06;1.27;;;0.63;;
12425;SDS011;6277;49.824;9.562;2022-07-03T08:16:33;0.77;;;0.60;;
12425;SDS011;6277;49.824;9.562;2022-07-03T08:18:59;0.50;;;0.50;;
12425;SDS011;6277;49.824;9.562;2022-07-03T08:21:25;0.75;;;0.50;;
12425;SDS011;6277;49.824;9.562;2022-07-03T08:23:50;0.68;;;0.47;;
12425;SDS011;6277;49.824;9.562;2022-07-03T08:26:16;1.13;;;0.60;;
12425;SDS011;6277;49.824;9.562;2022-07-03T08:28:41;0.50;;;0.50;;
12425;SDS011;6277;49.824;9.562;2022-07-03T08:31:07;0.32;;;0.30;;
12425;SDS011;6277;49.824;9.562;2022-07-03T08:33:32;0.73;;;0.50;;
12425;SDS011;6277;49.824;9.562;2022-07-03T08:35:58;0.68;;;0.45;;
12425;SDS011;6277;49.824;9.562;2022-07-03T08:38:25;0.65;;;0.50;;
12425;SDS011;6277;49.824;9.562;2022-07-03T08:40:58;0.65;;;0.40;;
12425;SDS011;6277;49.824;9.562;2022-07-03T08:43:24;1.98;;;0.47;;
12425;SDS011;6277;49.824;9.562;2022-07-03T08:45:50;0.85;;;0.50;;
12425;SDS011;6277;49.824;9.562;2022-07-03T08:48:18;0.55;;;0.40;;
12425;SDS011;6277;49.824;9.562;2022-07-03T08:50:45;0.40;;;0.40;;
12425;SDS011;6277;49.824;9.562;2022-07-03T08:53:11;0.38;;;0.38;;
12425;SDS011;6277;49.824;9.562;2022-07-03T08:55:37;0.73;;;0.30;;
12425;SDS011;6277;49.824;9.562;2022-07-03T08:58:03;0.30;;;0.30;;
12425;SDS011;6277;49.824;9.562;2022-07-03T09:00:30;0.50;;;0.40;;
12425;SDS011;6277;49.824;9.562;2022-07-03T09:02:57;0.70;;;0.30;;
12425;SDS011;6277;49.824;9.562;2022-07-03T09:05:24;0.57;;;0.30;;
12425;SDS011;6277;49.824;9.562;2022-07-03T09:07:50;0.50;;;0.35;;
12425;SDS011;6277;49.824;9.562;2022-07-03T09:10:18;0.40;;;0.30;;
12425;SDS011;6277;49.824;9.562;2022-07-03T09:12:44;1.15;;;0.40;;
12425;SDS011;6277;49.824;9.562;2022-07-03T09:15:11;1.08;;;0.30;;
12425;SDS011;6277;49.824;9.562;2022-07-03T09:17:38;0.35;;;0.30;;
12425;SDS011;6277;49.824;9.562;2022-07-03T09:20:04;0.30;;;0.30;;
12425;SDS011;6277;49.824;9.562;2022-07-03T09:22:32;0.50;;;0.47;;
12425;SDS011;6277;49.824;9.562;2022-07-03T09:25:06;2.78;;;0.43;;
12425;SDS011;6277;49.824;9.562;2022-07-03T09:27:33;0.40;;;0.22;;
12425;SDS011;6277;49.824;9.562;2022-07-03T09:30:04;0.50;;;0.30;;
12425;SDS011;6277;49.824;9.562;2022-07-03T09:32:42;0.75;;;0.32;;
12425;SDS011;6277;49.824;9.562;2022-07-03T09:37:37;0.20;;;0.20;;
12425;SDS011;6277;49.824;9.562;2022-07-03T09:40:03;0.57;;;0.38;;
12425;SDS011;6277;49.824;9.562;2022-07-03T09:42:30;0.65;;;0.30;;
12425;SDS011;6277;49.824;9.562;2022-07-03T09:44:55;0.60;;;0.40;;
12425;SDS011;6277;49.824;9.562;2022-07-03T09:49:49;0.93;;;0.30;;
12425;SDS011;6277;49.824;9.562;2022-07-03T09:57:43;0.55;;;0.25;;
12425;SDS011;6277;49.824;9.562;2022-07-03T10:05:35;0.30;;;0.25;;
12425;SDS011;6277;49.824;9.562;2022-07-03T10:08:06;0.30;;;0.30;;
12425;SDS011;6277;49.824;9.562;2022-07-03T10:10:37;0.47;;;0.20;;
12425;SDS011;6277;49.824;9.562;2022-07-03T10:13:09;0.35;;;0.28;;
12425;SDS011;6277;49.824;9.562;2022-07-03T10:15:36;0.40;;;0.28;;
12425;SDS011;6277;49.824;9.562;2022-07-03T10:18:10;1.33;;;0.40;;
12425;SDS011;6277;49.824;9.562;2022-07-03T10:20:44;0.50;;;0.30;;
12425;SDS011;6277;49.824;9.562;2022-07-03T10:23:11;0.40;;;0.22;;
12425;SDS011;6277;49.824;9.562;2022-07-03T10:25:42;0.30;;;0.30;;
12425;SDS011;6277;49.824;9.562;2022-07-03T10:28:11;0.68;;;0.30;;
12425;SDS011;6277;49.824;9.562;2022-07-03T10:30:37;0.77;;;0.30;;
12425;SDS011;6277;49.824;9.562;2022-07-03T10:33:04;0.55;;;0.55;;
12425;SDS011;6277;49.824;9.562;2022-07-03T10:35:37;1.10;;;0.30;;
12425;SDS011;6277;49.824;9.562;2022-07-03T10:44:13;0.68;;;0.30;;
12425;SDS011;6277;49.824;9.562;2022-07-03T10:46:58;0.40;;;0.28;;
12425;SDS011;6277;49.824;9.562;2022-07-03T10:49:24;0.35;;;0.20;;
12425;SDS011;6277;49.824;9.562;2022-07-03T10:52:00;0.70;;;0.20;;
12425;SDS011;6277;49.824;9.562;2022-07-03T11:05:12;0.25;;;0.10;;
12425;SDS011;6277;49.824;9.562;2022-07-03T11:15:34;0.30;;;0.30;;
12425;SDS011;6277;49.824;9.562;2022-07-03T11:20:37;0.57;;;0.20;;
12425;SDS011;6277;49.824;9.562;2022-07-03T11:25:51;0.45;;;0.20;;
12425;SDS011;6277;49.824;9.562;2022-07-03T11:36:10;0.30;;;0.20;;
12425;SDS011;6277;49.824;9.562;2022-07-03T11:41:19;1.13;;;0.20;;
12425;SDS011;6277;49.824;9.562;2022-07-03T11:43:48;0.30;;;0.20;;
12425;SDS011;6277;49.824;9.562;2022-07-03T11:46:25;0.20;;;0.20;;
12425;SDS011;6277;49.824;9.562;2022-07-03T11:51:36;0.38;;;0.20;;
12425;SDS011;6277;49.824;9.562;2022-07-03T11:54:03;0.20;;;0.20;;
12425;SDS011;6277;49.824;9.562;2022-07-03T11:56:29;0.20;;;0.20;;
12425;SDS011;6277;49.824;9.562;2022-07-03T11:58:56;0.22;;;0.20;;
12425;SDS011;6277;49.824;9.562;2022-07-03T12:04:37;1.45;;;0.22;;
12425;SDS011;6277;49.824;9.562;2022-07-03T12:06:48;0.47;;;0.20;;
12425;SDS011;6277;49.824;9.562;2022-07-03T12:12:14;0.20;;;0.20;;
12425;SDS011;6277;49.824;9.562;2022-07-03T12:17:21;0.75;;;0.20;;
12425;SDS011;6277;49.824;9.562;2022-07-03T12:19:49;0.60;;;0.17;;
12425;SDS011;6277;49.824;9.562;2022-07-03T12:22:29;0.30;;;0.30;;
12425;SDS011;6277;49.824;9.562;2022-07-03T12:27:26;0.40;;;0.30;;
12425;SDS011;6277;49.824;9.562;2022-07-03T12:29:52;0.63;;;0.30;;
12425;SDS011;6277;49.824;9.562;2022-07-03T12:32:18;0.28;;;0.17;;
12425;SDS011;6277;49.824;9.562;2022-07-03T12:34:44;0.50;;;0.30;;
12425;SDS011;6277;49.824;9.562;2022-07-03T12:37:10;2.38;;;0.20;;
12425;SDS011;6277;49.824;9.562;2022-07-03T12:39:42;1.00;;;0.30;;
12425;SDS011;6277;49.824;9.562;2022-07-03T12:44:41;0.30;;;0.30;;
12425;SDS011;6277;49.824;9.562;2022-07-03T12:47:06;1.95;;;0.40;;
12425;SDS011;6277;49.824;9.562;2022-07-03T12:49:32;0.38;;;0.20;;
12425;SDS011;6277;49.824;9.562;2022-07-03T12:51:58;0.30;;;0.25;;
12425;SDS011;6277;49.824;9.562;2022-07-03T12:54:33;0.35;;;0.30;;
12425;SDS011;6277;49.824;9.562;2022-07-03T13:00:27;1.20;;;0.30;;
12425;SDS011;6277;49.824;9.562;2022-07-03T13:02:46;0.30;;;0.25;;
12425;SDS011;6277;49.824;9.562;2022-07-03T13:07:43;0.50;;;0.30;;
12425;SDS011;6277;49.824;9.562;2022-07-03T13:10:10;0.28;;;0.20;;
12425;SDS011;6277;49.824;9.562;2022-07-03T13:12:44;1.17;;;0.40;;
12425;SDS011;6277;49.824;9.562;2022-07-03T13:15:20;0.40;;;0.32;;
12425;SDS011;6277;49.824;9.562;2022-07-03T13:20:24;1.75;;;0.60;;
12425;SDS011;6277;49.824;9.562;2022-07-03T13:22:51;0.68;;;0.28;;
12425;SDS011;6277;49.824;9.562;2022-07-03T13:25:19;0.45;;;0.20;;
12425;SDS011;6277;49.824;9.562;2022-07-03T13:27:44;0.40;;;0.13;;
12425;SDS011;6277;49.824;9.562;2022-07-03T13:30:11;2.22;;;0.30;;
12425;SDS011;6277;49.824;9.562;2022-07-03T13:32:40;0.30;;;0.30;;
12425;SDS011;6277;49.824;9.562;2022-07-03T13:35:07;4.10;;;0.30;;
12425;SDS011;6277;49.824;9.562;2022-07-03T13:37:33;0.20;;;0.20;;
12425;SDS011;6277;49.824;9.562;2022-07-03T13:40:02;0.40;;;0.25;;
12425;SDS011;6277;49.824;9.562;2022-07-03T13:42:29;0.28;;;0.20;;
12425;SDS011;6277;49.824;9.562;2022-07-03T13:44:55;0.35;;;0.30;;
12425;SDS011;6277;49.824;9.562;2022-07-03T13:47:21;0.60;;;0.25;;
12425;SDS011;6277;49.824;9.562;2022-07-03T13:49:46;2.17;;;0.22;;
12425;SDS011;6277;49.824;9.562;2022-07-03T13:52:12;0.38;;;0.20;;
12425;SDS011;6277;49.824;9.562;2022-07-03T13:54:38;0.45;;;0.20;;
12425;SDS011;6277;49.824;9.562;2022-07-03T13:57:03;2.15;;;0.63;;
12425;SDS011;6277;49.824;9.562;2022-07-03T13:59:29;0.60;;;0.30;;
12425;SDS011;6277;49.824;9.562;2022-07-03T14:01:55;0.25;;;0.20;;
12425;SDS011;6277;49.824;9.562;2022-07-03T14:04:21;0.45;;;0.20;;
12425;SDS011;6277;49.824;9.562;2022-07-03T14:06:47;0.75;;;0.40;;
12425;SDS011;6277;49.824;9.562;2022-07-03T14:09:13;1.00;;;0.40;;
12425;SDS011;6277;49.824;9.562;2022-07-03T14:11:38;0.98;;;0.50;;
12425;SDS011;6277;49.824;9.562;2022-07-03T14:14:04;0.60;;;0.20;;
12425;SDS011;6277;49.824;9.562;2022-07-03T14:16:29;0.50;;;0.30;;
12425;SDS011;6277;49.824;9.562;2022-07-03T14:18:55;0.45;;;0.20;;
12425;SDS011;6277;49.824;9.562;2022-07-03T14:21:20;2.17;;;0.38;;
12425;SDS011;6277;49.824;9.562;2022-07-03T14:23:46;0.15;;;0.15;;
12425;SDS011;6277;49.824;9.562;2022-07-03T14:26:11;0.40;;;0.20;;
12425;SDS011;6277;49.824;9.562;2022-07-03T14:28:37;1.92;;;0.40;;
12425;SDS011;6277;49.824;9.562;2022-07-03T14:31:21;1.88;;;0.30;;
12425;SDS011;6277;49.824;9.562;2022-07-03T14:33:49;0.40;;;0.30;;
12425;SDS011;6277;49.824;9.562;2022-07-03T14:36:19;0.65;;;0.20;;
12425;SDS011;6277;49.824;9.562;2022-07-03T14:38:45;0.82;;;0.50;;
12425;SDS011;6277;49.824;9.562;2022-07-03T14:41:11;0.20;;;0.20;;
12425;SDS011;6277;49.824;9.562;2022-07-03T14:43:36;0.38;;;0.30;;
12425;SDS011;6277;49.824;9.562;2022-07-03T14:46:02;0.88;;;0.20;;
12425;SDS011;6277;49.824;9.562;2022-07-03T14:48:27;0.60;;;0.30;;
12425;SDS011;6277;49.824;9.562;2022-07-03T14:50:54;0.57;;;0.20;;
12425;SDS011;6277;49.824;9.562;2022-07-03T14:53:20;0.30;;;0.22;;
12425;SDS011;6277;49.824;9.562;2022-07-03T14:55:47;0.70;;;0.40;;
12425;SDS011;6277;49.824;9.562;2022-07-03T14:58:15;0.60;;;0.30;;
12425;SDS011;6277;49.824;9.562;2022-07-03T15:03:30;0.20;;;0.20;;
12425;SDS011;6277;49.824;9.562;2022-07-03T15:05:58;0.38;;;0.10;;
12425;SDS011;6277;49.824;9.562;2022-07-03T15:14:03;0.88;;;0.30;;
12425;SDS011;6277;49.824;9.562;2022-07-03T15:16:33;0.65;;;0.30;;
12425;SDS011;6277;49.824;9.562;2022-07-03T15:18:59;0.30;;;0.20;;
12425;SDS011;6277;49.824;9.562;2022-07-03T15:21:30;1.10;;;0.28;;
12425;SDS011;6277;49.824;9.562;2022-07-03T15:24:02;0.30;;;0.30;;
12425;SDS011;6277;49.824;9.562;2022-07-03T15:26:31;0.25;;;0.20;;
12425;SDS011;6277;49.824;9.562;2022-07-03T15:28:58;0.40;;;0.30;;
12425;SDS011;6277;49.824;9.562;2022-07-03T15:31:25;0.80;;;0.30;;
12425;SDS011;6277;49.824;9.562;2022-07-03T15:33:53;0.30;;;0.20;;
12425;SDS011;6277;49.824;9.562;2022-07-03T15:36:20;0.20;;;0.20;;
12425;SDS011;6277;49.824;9.562;2022-07-03T15:38:55;1.15;;;0.20;;
12425;SDS011;6277;49.824;9.562;2022-07-03T15:41:31;0.55;;;0.30;;
12425;SDS011;6277;49.824;9.562;2022-07-03T15:49:30;0.60;;;0.28;;
12425;SDS011;6277;49.824;9.562;2022-07-03T15:52:13;0.82;;;0.30;;
12425;SDS011;6277;49.824;9.562;2022-07-03T15:54:55;0.17;;;0.13;;
12425;SDS011;6277;49.824;9.562;2022-07-03T15:57:25;0.47;;;0.30;;
12425;SDS011;6277;49.824;9.562;2022-07-03T15:59:59;1.17;;;0.30;;
12425;SDS011;6277;49.824;9.562;2022-07-03T16:02:36;0.20;;;0.20;;
12425;SDS011;6277;49.824;9.562;2022-07-03T16:05:18;0.35;;;0.20;;
12425;SDS011;6277;49.824;9.562;2022-07-03T16:07:51;0.22;;;0.20;;
12425;SDS011;6277;49.824;9.562;2022-07-03T16:10:18;1.10;;;0.10;;
12425;SDS011;6277;49.824;9.562;2022-07-03T16:12:45;0.43;;;0.30;;
12425;SDS011;6277;49.824;9.562;2022-07-03T16:15:13;0.47;;;0.20;;
12425;SDS011;6277;49.824;9.562;2022-07-03T16:17:38;0.75;;;0.20;;
12425;SDS011;6277;49.824;9.562;2022-07-03T16:20:05;0.55;;;0.20;;
12425;SDS011;6277;49.824;9.562;2022-07-03T16:22:34;2.20;;;0.30;;
12425;SDS011;6277;49.824;9.562;2022-07-03T16:25:02;0.70;;;0.25;;
12425;SDS011;6277;49.824;9.562;2022-07-03T16:27:29;2.50;;;0.20;;
12425;SDS011;6277;49.824;9.562;2022-07-03T16:29:55;0.22;;;0.20;;
12425;SDS011;6277;49.824;9.562;2022-07-03T16:32:23;1.00;;;0.20;;
12425;SDS011;6277;49.824;9.562;2022-07-03T16:35:04;0.35;;;0.25;;
12425;SDS011;6277;49.824;9.562;2022-07-03T16:37:45;1.08;;;0.20;;
12425;SDS011;6277;49.824;9.562;2022-07-03T16:40:16;0.25;;;0.10;;
12425;SDS011;6277;49.824;9.562;2022-07-03T16:42:43;0.30;;;0.20;;
12425;SDS011;6277;49.824;9.562;2022-07-03T16:45:10;0.32;;;0.17;;
12425;SDS011;6277;49.824;9.562;2022-07-03T16:47:37;0.73;;;0.20;;
12425;SDS011;6277;49.824;9.562;2022-07-03T16:50:08;0.20;;;0.20;;
12425;SDS011;6277;49.824;9.562;2022-07-03T16:52:36;0.82;;;0.30;;
12425;SDS011;6277;49.824;9.562;2022-07-03T16:55:05;0.50;;;0.30;;
12425;SDS011;6277;49.824;9.562;2022-07-03T16:57:32;0.20;;;0.13;;
12425;SDS011;6277;49.824;9.562;2022-07-03T17:00:00;0.38;;;0.20;;
12425;SDS011;6277;49.824;9.562;2022-07-03T17:02:26;1.52;;;0.20;;
12425;SDS011;6277;49.824;9.562;2022-07-03T17:04:52;0.25;;;0.25;;
12425;SDS011;6277;49.824;9.562;2022-07-03T17:07:19;0.20;;;0.20;;
12425;SDS011;6277;49.824;9.562;2022-07-03T17:09:45;0.93;;;0.25;;
12425;SDS011;6277;49.824;9.562;2022-07-03T17:12:11;0.35;;;0.20;;